Time;durP1;ratioP1;P1;durP2;ratioP2;P2;SDS_P1;SDS_P2;PMS_P1;PMS_P2;Temp;Humidity;BMP_temperature;BMP_pressure;BME280_temperature;BME280_humidity;BME280_pressure;Samples;Min_cycle;Max_cycle;Signal;HPM_P1;HPM_P2
2021/04/20 00:00:22;;;;;;;21.85;16.60;;;;;;;6.99;76.42;100265.33;1795537;77;21763;-69
2021/04/20 00:02:50;;;;;;;22.32;17.30;;;;;;;6.97;76.53;100266.09;1789363;79;21185;-70
2021/04/20 00:05:19;;;;;;;21.05;16.35;;;;;;;6.95;76.63;100264.21;1792551;79;21648;-70
2021/04/20 00:07:47;;;;;;;22.15;16.48;;;;;;;6.93;76.71;100258.33;1791469;79;21182;-69
2021/04/20 00:10:18;;;;;;;21.65;16.82;;;;;;;6.91;76.76;100256.45;1794915;77;21461;-71
2021/04/20 00:12:47;;;;;;;22.37;16.27;;;;;;;6.90;76.77;100255.34;1793514;77;21126;-70
2021/04/20 00:15:24;;;;;;;24.80;16.93;;;;;;;6.89;76.81;100254.55;1790512;77;21637;-69
2021/04/20 00:17:59;;;;;;;20.55;16.00;;;;;;;6.89;76.85;100253.75;1800785;77;21213;-72
2021/04/20 00:20:27;;;;;;;21.17;16.15;;;;;;;6.88;76.89;100252.94;1792839;77;21166;-71
2021/04/20 00:22:55;;;;;;;23.60;15.58;;;;;;;6.88;76.94;100252.11;1788152;78;21612;-72
2021/04/20 00:25:24;;;;;;;21.97;15.80;;;;;;;6.86;76.98;100255.02;1793600;78;21219;-71
2021/04/20 00:27:53;;;;;;;19.55;15.40;;;;;;;6.83;77.09;100246.73;1798758;79;21201;-71
2021/04/20 00:30:22;;;;;;;20.00;15.30;;;;;;;6.78;77.21;100245.61;1793908;77;21174;-70
2021/04/20 00:32:50;;;;;;;17.98;13.53;;;;;;;6.77;77.35;100247.16;1795415;79;22841;-71
2021/04/20 00:35:18;;;;;;;20.12;15.90;;;;;;;6.75;77.51;100244.76;1794408;77;22164;-70
2021/04/20 00:37:46;;;;;;;20.92;14.80;;;;;;;6.71;77.65;100246.28;1790699;77;21177;-69
2021/04/20 00:40:16;;;;;;;19.73;14.28;;;;;;;6.69;77.80;100239.59;1801445;77;21321;-71
2021/04/20 00:42:52;;;;;;;18.95;14.90;;;;;;;6.66;77.94;100234.23;1798955;77;21550;-70
2021/04/20 00:45:26;;;;;;;20.00;15.28;;;;;;;6.68;78.03;100231.33;1805595;79;21185;-70
2021/04/20 00:47:53;;;;;;;20.70;15.75;;;;;;;6.73;78.02;100234.89;1791594;78;21362;-70
2021/04/20 00:50:29;;;;;;;20.75;15.75;;;;;;;6.79;78.04;100230.48;1817588;76;21193;-70
2021/04/20 00:52:59;;;;;;;22.45;16.80;;;;;;;6.81;78.02;100221.73;1824586;76;21085;-68
2021/04/20 00:55:28;;;;;;;22.27;16.40;;;;;;;6.84;78.08;100223.91;1812346;77;21561;-69
2021/04/20 00:57:56;;;;;;;20.20;15.32;;;;;;;6.83;78.19;100217.53;1800122;77;21133;-70
2021/04/20 01:00:28;;;;;;;18.75;15.03;;;;;;;6.82;78.25;100215.41;1799146;77;21346;-70
2021/04/20 01:02:56;;;;;;;17.92;13.25;;;;;;;6.78;78.26;100214.28;1795374;78;21144;-69
2021/04/20 01:05:36;;;;;;;17.65;13.90;;;;;;;6.76;78.32;100212.38;1750448;80;21239;-69
2021/04/20 01:08:07;;;;;;;16.35;13.08;;;;;;;6.73;78.35;100210.20;1808249;79;21625;-68
2021/04/20 01:10:42;;;;;;;18.75;13.13;;;;;;;6.68;78.37;100203.47;1796105;77;21021;-69
2021/04/20 01:13:11;;;;;;;15.03;12.28;;;;;;;6.66;78.40;100201.06;1790702;79;21356;-69
2021/04/20 01:15:46;;;;;;;17.48;13.62;;;;;;;6.66;78.43;100194.44;1801139;77;21177;-69
2021/04/20 01:18:18;;;;;;;15.30;12.35;;;;;;;6.65;78.43;100192.03;1768861;77;21158;-70
2021/04/20 01:20:53;;;;;;;16.97;13.03;;;;;;;6.63;78.45;100186.95;1790107;79;21242;-68
2021/04/20 01:23:53;;;;;;;18.00;13.27;;;;;;;6.68;78.41;100184.39;1810743;77;22911;-69
2021/04/20 01:26:25;;;;;;;18.95;13.70;;;;;;;6.61;78.39;100182.92;1771577;78;21439;-68
2021/04/20 01:28:53;;;;;;;18.20;14.05;;;;;;;6.61;78.45;100181.59;1806277;78;21359;-71
2021/04/20 01:31:23;;;;;;;18.07;14.15;;;;;;;6.62;78.46;100185.34;1808774;77;21262;-70
2021/04/20 01:33:52;;;;;;;19.80;14.95;;;;;;;6.63;78.47;100178.19;1802010;78;21204;-71
2021/04/20 01:36:22;;;;;;;19.42;14.05;;;;;;;6.62;78.53;100172.08;1795697;78;21107;-69
2021/04/20 01:38:51;;;;;;;18.60;14.13;;;;;;;6.61;78.60;100178.94;1800510;77;21119;-70
2021/04/20 01:41:21;;;;;;;20.20;14.15;;;;;;;6.59;78.71;100177.86;1801107;77;21204;-69
2021/04/20 01:43:53;;;;;;;18.80;14.78;;;;;;;6.60;78.85;100174.69;1803057;77;21171;-68
2021/04/20 01:46:21;;;;;;;20.30;15.13;;;;;;;6.57;78.89;100171.98;1819242;78;21099;-70
2021/04/20 01:48:51;;;;;;;19.45;15.15;;;;;;;6.55;78.98;100171.44;1799303;77;21193;-69
2021/04/20 01:51:21;;;;;;;20.35;15.35;;;;;;;6.52;79.01;100171.38;1801667;77;21540;-69
2021/04/20 01:53:51;;;;;;;20.62;15.55;;;;;;;6.50;79.01;100172.66;1805554;77;22195;-70
2021/04/20 01:56:20;;;;;;;19.20;14.73;;;;;;;6.50;79.04;100170.80;1809780;78;21124;-70
2021/04/20 01:58:50;;;;;;;20.30;15.98;;;;;;;6.49;79.11;100175.04;1794622;77;21143;-70
2021/04/20 02:01:24;;;;;;;19.60;14.63;;;;;;;6.46;79.19;100163.58;1815210;78;21182;-70
2021/04/20 02:03:53;;;;;;;20.30;15.60;;;;;;;6.46;79.23;100164.91;1808141;77;21662;-69
2021/04/20 02:06:24;;;;;;;20.23;14.70;;;;;;;6.44;79.30;100156.37;1803614;77;21196;-69
2021/04/20 02:08:52;;;;;;;18.42;14.50;;;;;;;6.45;79.29;100156.64;1796142;77;28614;-68
2021/04/20 02:11:23;;;;;;;18.70;14.78;;;;;;;6.47;79.29;100146.61;1816039;76;21124;-69
2021/04/20 02:13:51;;;;;;;19.52;15.32;;;;;;;6.49;79.28;100144.53;1834324;77;21160;-69
2021/04/20 02:16:20;;;;;;;19.00;14.63;;;;;;;6.49;79.24;100145.33;1776627;80;21193;-68
2021/04/20 02:19:01;;;;;;;21.90;16.30;;;;;;;6.49;79.29;100142.67;1754551;80;21385;-69
2021/04/20 02:21:31;;;;;;;19.90;15.60;;;;;;;6.48;79.35;100137.59;1770503;80;21175;-69
2021/04/20 02:23:59;;;;;;;21.62;16.40;;;;;;;6.45;79.42;100138.90;1755895;79;21187;-69
2021/04/20 02:26:32;;;;;;;20.32;15.48;;;;;;;6.44;79.52;100140.45;1777023;79;21238;-69
2021/04/20 02:29:02;;;;;;;17.57;13.72;;;;;;;6.42;79.63;100139.38;1772787;80;21177;-70
2021/04/20 02:31:35;;;;;;;19.98;15.70;;;;;;;6.38;79.71;100132.12;1766602;79;21505;-69
2021/04/20 02:34:07;;;;;;;;;;;;;;;6.33;79.82;100130.20;1776663;79;21165;-69
2021/04/20 02:36:43;;;;;;;19.95;15.95;;;;;;;6.30;79.92;100128.02;1768799;79;20228;-69
2021/04/20 02:39:12;;;;;;;19.98;14.85;;;;;;;6.24;80.08;100125.79;1777171;79;21160;-69
2021/04/20 02:41:44;;;;;;;20.75;15.13;;;;;;;6.20;80.18;100128.64;1774190;80;21639;-69
2021/04/20 02:44:13;;;;;;;;;;;;;;;6.17;80.31;100128.31;1742175;80;21922;-69
2021/04/20 02:46:43;;;;;;;19.95;15.63;;;;;;;6.13;80.42;100130.64;1772335;79;20359;-70
2021/04/20 02:49:12;;;;;;;21.30;16.27;;;;;;;6.11;80.51;100128.73;1773039;79;22232;-71
2021/04/20 02:51:44;;;;;;;22.37;16.07;;;;;;;6.09;80.59;100130.31;1774860;79;21239;-70
2021/04/20 02:54:13;;;;;;;19.55;14.75;;;;;;;6.10;80.68;100127.14;1747942;80;21141;-69
2021/04/20 02:56:47;;;;;;;20.95;14.98;;;;;;;6.10;80.71;100134.56;1755200;80;21272;-69
2021/04/20 02:59:16;;;;;;;18.07;14.35;;;;;;;6.11;80.78;100132.72;1754192;80;21184;-69
2021/04/20 03:01:46;;;;;;;17.80;13.70;;;;;;;6.15;80.83;100130.39;1754999;80;21208;-70
2021/04/20 03:04:17;;;;;;;17.25;13.50;;;;;;;6.20;80.85;100124.66;1758823;80;21186;-69
2021/04/20 03:06:46;;;;;;;19.32;12.55;;;;;;;6.24;80.84;100118.36;1776189;79;21186;-69
2021/04/20 03:09:30;;;;;;;16.43;13.30;;;;;;;6.34;80.88;100124.63;1844913;76;22669;-72
2021/04/20 03:12:01;;;;;;;16.50;12.78;;;;;;;6.34;80.82;100122.52;1825557;77;21140;-71
2021/04/20 03:14:32;;;;;;;16.70;12.73;;;;;;;6.38;80.76;100122.83;1822332;77;21543;-70
2021/04/20 03:17:00;;;;;;;16.05;11.80;;;;;;;6.40;80.68;100124.73;1774923;78;21236;-69
2021/04/20 03:19:28;;;;;;;17.77;13.83;;;;;;;6.46;80.56;100125.11;1823830;76;21150;-69
2021/04/20 03:21:56;;;;;;;16.67;13.00;;;;;;;6.51;80.48;100129.95;1822494;77;21195;-69
2021/04/20 03:25:09;;;;;;;18.17;14.28;;;;;;;6.53;80.37;100125.75;1819636;78;22136;-68
2021/04/20 03:27:38;;;;;;;;;;;;;;;6.57;80.28;100123.69;1822047;78;21371;-68
2021/04/20 03:30:08;;;;;;;19.62;14.75;;;;;;;6.64;80.15;100121.41;1816023;78;20255;-70
2021/04/20 03:32:37;;;;;;;19.77;15.03;;;;;;;6.70;80.04;100127.88;1816517;76;21555;-70
2021/04/20 03:35:19;;;;;;;19.80;15.05;;;;;;;6.79;79.94;100123.78;1794828;78;21166;-70
2021/04/20 03:38:04;;;;;;;20.02;15.05;;;;;;;6.86;79.80;100123.61;1808261;78;21190;-69
2021/04/20 03:40:34;;;;;;;18.48;15.18;;;;;;;6.90;79.64;100118.63;1811382;77;22268;-69
2021/04/20 03:43:09;;;;;;;21.77;16.40;;;;;;;6.95;79.52;100120.03;1819986;77;21191;-69
2021/04/20 03:45:51;;;;;;;18.87;15.35;;;;;;;7.00;79.40;100121.42;1791513;77;21213;-68
2021/04/20 03:48:35;;;;;;;19.13;14.10;;;;;;;7.13;79.23;100118.42;1821826;77;23319;-69
2021/04/20 03:51:15;;;;;;;18.70;14.65;;;;;;;7.11;79.08;100115.22;1794116;77;21287;-68
2021/04/20 03:53:46;;;;;;;18.00;14.47;;;;;;;7.18;78.96;100117.17;1799366;78;21160;-69
2021/04/20 03:56:14;;;;;;;18.45;14.63;;;;;;;7.22;78.76;100114.83;1800003;77;21167;-69
2021/04/20 03:58:43;;;;;;;19.35;14.85;;;;;;;7.25;78.62;100117.00;1799951;78;21167;-70
2021/04/20 04:01:12;;;;;;;18.80;15.10;;;;;;;7.29;78.52;100110.94;1795085;78;21163;-69
2021/04/20 04:03:40;;;;;;;19.55;15.28;;;;;;;7.33;78.36;100117.09;1792406;79;22489;-69
2021/04/20 04:06:08;;;;;;;19.30;14.58;;;;;;;7.35;78.26;100111.02;1769666;79;21366;-69
2021/04/20 04:08:37;;;;;;;15.03;12.63;;;;;;;7.35;78.17;100109.69;1769701;79;21138;-68
2021/04/20 04:11:05;;;;;;;16.52;13.62;;;;;;;7.37;78.08;100107.07;1772918;79;21670;-69
2021/04/20 04:13:33;;;;;;;16.77;14.25;;;;;;;7.36;77.96;100105.97;1778365;79;21155;-69
2021/04/20 04:16:03;;;;;;;17.17;13.80;;;;;;;7.33;77.92;100105.13;1747674;79;21107;-69
2021/04/20 04:18:32;;;;;;;16.32;12.88;;;;;;;7.31;77.90;100108.05;1790439;79;21350;-69
2021/04/20 04:21:04;;;;;;;14.10;11.33;;;;;;;7.32;77.95;100110.17;1801961;79;21175;-68
2021/04/20 04:23:50;;;;;;;16.50;13.90;;;;;;;7.37;77.87;100098.27;1799453;79;22153;-70
2021/04/20 04:26:22;;;;;;;19.30;14.90;;;;;;;7.34;77.93;100108.06;1749658;80;21695;-69
2021/04/20 04:28:52;;;;;;;;;;;;;;;7.42;77.99;100107.11;1713312;81;21377;-69
2021/04/20 04:31:20;;;;;;;17.85;14.40;;;;;;;7.48;77.96;100104.00;1704282;81;20278;-69
2021/04/20 04:33:49;;;;;;;17.10;13.13;;;;;;;7.52;77.88;100110.42;1707074;82;21205;-69
2021/04/20 04:36:17;;;;;;;18.67;14.15;;;;;;;7.58;77.87;100104.13;1698226;82;21461;-70
2021/04/20 04:38:45;;;;;;;17.67;13.68;;;;;;;7.64;77.88;100093.83;1707847;83;21165;-69
2021/04/20 04:41:14;;;;;;;18.60;13.32;;;;;;;7.74;77.89;100099.27;1704504;81;21397;-68
2021/04/20 04:43:42;;;;;;;15.48;12.37;;;;;;;7.84;77.87;100092.45;1703484;83;21551;-69
2021/04/20 04:46:10;;;;;;;13.75;11.33;;;;;;;7.95;77.83;100082.98;1737354;81;21200;-69
2021/04/20 04:48:39;;;;;;;13.83;10.78;;;;;;;8.08;77.34;100089.76;1722645;81;21214;-68
2021/04/20 04:51:07;;;;;;;14.33;12.15;;;;;;;8.19;76.68;100088.81;1715970;82;21946;-70
2021/04/20 04:53:37;;;;;;;17.32;12.75;;;;;;;8.28;76.10;100077.70;1718941;82;21376;-68
2021/04/20 04:56:06;;;;;;;14.83;12.10;;;;;;;8.37;75.69;100075.66;1732719;81;21231;-69
2021/04/20 04:58:36;;;;;;;13.35;10.28;;;;;;;8.52;75.39;100080.31;1734080;81;21217;-69
2021/04/20 05:01:05;;;;;;;12.00;10.70;;;;;;;8.63;74.90;100068.69;1734295;81;21180;-69
2021/04/20 05:03:33;;;;;;;13.80;10.43;;;;;;;8.75;74.23;100066.36;1722843;81;21684;-70
2021/04/20 05:06:02;;;;;;;18.23;13.55;;;;;;;8.83;73.75;100065.89;1745206;81;21380;-70
2021/04/20 05:08:32;;;;;;;13.95;11.40;;;;;;;8.87;73.25;100069.11;1740540;81;21208;-71
2021/04/20 05:11:02;;;;;;;14.47;11.68;;;;;;;8.90;72.88;100062.47;1722609;83;22162;-70
2021/04/20 05:13:31;;;;;;;13.05;10.48;;;;;;;8.93;72.50;100063.29;1739241;81;21199;-69
2021/04/20 05:16:05;;;;;;;12.13;9.95;;;;;;;8.93;72.28;100073.94;1734609;81;21181;-69
2021/04/20 05:18:34;;;;;;;11.68;9.80;;;;;;;8.95;72.13;100071.83;1738154;81;21437;-69
2021/04/20 05:21:05;;;;;;;11.20;9.90;;;;;;;8.95;71.78;100075.00;1694038;83;21154;-71
2021/04/20 05:23:36;;;;;;;12.23;10.10;;;;;;;8.93;71.61;100071.28;1691054;81;21185;-70
2021/04/20 05:26:04;;;;;;;11.78;9.30;;;;;;;8.99;71.54;100066.79;1733934;81;21192;-71
2021/04/20 05:28:33;;;;;;;10.03;8.68;;;;;;;9.04;71.40;100067.60;1726178;81;21186;-69
2021/04/20 05:31:01;;;;;;;11.97;10.10;;;;;;;9.12;71.22;100066.33;1712687;81;21373;-71
2021/04/20 05:33:30;;;;;;;11.45;9.53;;;;;;;9.23;70.87;100071.96;1731521;81;21161;-69
2021/04/20 05:36:08;;;;;;;11.05;8.90;;;;;;;9.29;70.57;100077.59;1722816;81;21177;-70
2021/04/20 05:38:37;;;;;;;11.73;9.28;;;;;;;9.40;70.35;100076.56;1724235;81;21187;-69
2021/04/20 05:41:07;;;;;;;10.85;8.73;;;;;;;9.52;70.35;100068.35;1728056;81;21205;-69
2021/04/20 05:43:35;;;;;;;9.03;7.60;;;;;;;9.63;69.82;100067.30;1737267;81;22285;-69
2021/04/20 05:46:05;;;;;;;10.48;8.43;;;;;;;9.73;69.65;100068.41;1729995;82;21193;-70
2021/04/20 05:48:37;;;;;;;10.63;8.65;;;;;;;9.79;69.42;100064.16;1726541;81;21221;-68
2021/04/20 05:51:19;;;;;;;10.00;7.60;;;;;;;9.87;69.21;100069.50;1724516;82;21121;-68
2021/04/20 05:53:49;;;;;;;8.78;7.15;;;;;;;9.94;68.63;100071.40;1729895;82;26919;-71
2021/04/20 05:56:23;;;;;;;11.68;9.35;;;;;;;9.96;68.44;100061.78;1725292;81;21658;-68
2021/04/20 05:58:56;;;;;;;9.78;8.20;;;;;;;9.95;68.11;100071.66;1732992;81;21211;-69
2021/04/20 06:01:25;;;;;;;11.33;9.40;;;;;;;9.95;67.96;100063.66;1722664;81;21150;-70
2021/04/20 06:03:57;;;;;;;10.60;8.67;;;;;;;9.95;67.80;100062.86;1733790;81;21249;-69
2021/04/20 06:06:24;;;;;;;10.88;8.40;;;;;;;9.98;67.53;100056.45;1732824;81;21767;-68
2021/04/20 06:08:53;;;;;;;11.03;8.65;;;;;;;9.95;67.50;100058.86;1736385;81;21488;-70
2021/04/20 06:11:21;;;;;;;10.93;8.73;;;;;;;9.95;67.50;100058.32;1742251;81;21193;-69
2021/04/20 06:13:54;;;;;;;11.88;9.50;;;;;;;9.99;67.69;100048.71;1736226;81;21841;-73
2021/04/20 06:16:23;;;;;;;11.05;9.60;;;;;;;10.04;67.55;100048.73;1734024;81;21532;-69
2021/04/20 06:18:52;;;;;;;10.20;8.55;;;;;;;10.09;67.50;100042.05;1731506;81;21730;-68
2021/04/20 06:21:23;;;;;;;10.17;8.60;;;;;;;10.21;67.58;100041.00;1726894;81;21201;-70
2021/04/20 06:23:52;;;;;;;9.85;7.75;;;;;;;10.35;67.19;100040.75;1739946;81;21552;-69
2021/04/20 06:26:20;;;;;;;8.80;7.83;;;;;;;10.55;66.93;100038.06;1733740;82;21572;-70
2021/04/20 06:28:49;;;;;;;10.00;8.03;;;;;;;10.71;66.10;100036.71;1729595;81;21922;-71
2021/04/20 06:31:18;;;;;;;10.23;8.07;;;;;;;10.86;65.83;100032.68;1726931;82;21879;-68
2021/04/20 06:33:46;;;;;;;8.70;6.33;;;;;;;11.01;65.39;100037.95;1727715;81;21457;-69
2021/04/20 06:36:15;;;;;;;9.57;7.70;;;;;;;11.17;64.44;100032.57;1730437;82;21404;-70
2021/04/20 06:38:43;;;;;;;7.17;6.00;;;;;;;11.30;63.99;100029.30;1726790;81;21920;-69
2021/04/20 06:41:12;;;;;;;9.43;7.50;;;;;;;11.44;62.36;100016.92;1726422;82;21498;-69
2021/04/20 06:43:58;;;;;;;8.47;7.50;;;;;;;11.49;61.74;100019.59;1722976;81;21473;-68
2021/04/20 06:46:52;;;;;;;8.20;7.03;;;;;;;11.43;61.48;100020.69;1726860;82;21558;-70
2021/04/20 06:49:31;;;;;;;8.77;7.33;;;;;;;11.26;61.23;100023.70;1718574;81;21515;-70
2021/04/20 06:52:05;;;;;;;8.80;7.33;;;;;;;11.13;61.68;100027.52;1733230;81;21557;-70
2021/04/20 06:54:44;;;;;;;8.40;7.30;;;;;;;10.97;61.65;100023.55;1722586;81;21458;-69
2021/04/20 06:57:21;;;;;;;9.40;7.03;;;;;;;10.89;62.11;100026.80;1732383;81;22544;-69
2021/04/20 07:00:16;;;;;;;8.53;7.63;;;;;;;10.89;62.90;100021.45;1725630;81;21306;-69
2021/04/20 07:03:07;;;;;;;8.27;6.83;;;;;;;10.96;63.58;100014.48;1695722;82;21458;-70
2021/04/20 07:05:57;;;;;;;9.93;8.37;;;;;;;10.99;63.68;100018.74;1730002;81;21291;-70
2021/04/20 07:08:41;;;;;;;9.47;8.13;;;;;;;11.09;63.89;100022.42;1727911;81;21479;-69
2021/04/20 07:11:12;;;;;;;9.30;7.40;;;;;;;11.23;63.55;100010.89;1646778;84;21463;-72
2021/04/20 07:13:47;;;;;;;7.97;6.95;;;;;;;11.28;62.64;100007.38;1727146;82;21366;-69
2021/04/20 07:16:32;;;;;;;8.63;7.60;;;;;;;11.33;62.36;100004.70;1724131;81;21208;-70
2021/04/20 07:19:27;;;;;;;9.33;6.97;;;;;;;11.39;62.29;100003.59;1680501;82;21546;-70
2021/04/20 07:22:48;;;;;;;7.13;5.83;;;;;;;11.50;61.84;100010.48;1717856;81;21427;-70
2021/04/20 07:26:18;;;;;;;8.40;6.37;;;;;;;11.63;61.06;100006.39;1829190;77;22767;-70
2021/04/20 07:29:09;;;;;;;6.35;5.15;;;;;;;11.57;60.76;100000.02;1845932;75;22275;-70
2021/04/20 07:32:17;;;;;;;7.67;6.43;;;;;;;11.46;60.37;100004.09;1840069;77;21196;-70
2021/04/20 07:35:31;;;;;;;7.70;6.60;;;;;;;11.35;60.49;100003.06;1836593;76;21252;-71
2021/04/20 07:38:07;;;;;;;7.00;5.87;;;;;;;11.20;60.69;99991.93;1836143;77;21422;-69
2021/04/20 07:40:59;;;;;;;6.40;5.33;;;;;;;11.21;60.73;99990.30;1847896;75;21429;-70
2021/04/20 07:43:53;;;;;;;6.72;5.17;;;;;;;11.24;60.10;99998.31;1801297;75;21234;-70
2021/04/20 07:46:43;;;;;;;7.10;6.33;;;;;;;11.21;59.85;99989.51;1856149;75;21205;-72
2021/04/20 07:49:30;;;;;;;7.03;5.63;;;;;;;11.22;60.13;99989.76;1854462;75;21476;-70
2021/04/20 07:52:37;;;;;;;7.33;5.53;;;;;;;11.30;60.40;99985.19;1818554;77;21310;-69
2021/04/20 07:55:22;;;;;;;6.87;5.20;;;;;;;11.53;59.77;99979.71;1761741;77;21324;-70
2021/04/20 07:58:06;;;;;;;6.50;5.50;;;;;;;11.73;59.44;99982.25;1836231;77;21276;-70
2021/04/20 08:00:42;;;;;;;8.30;5.40;;;;;;;11.79;58.15;99966.17;1839279;77;21814;-70
2021/04/20 08:03:47;;;;;;;7.63;5.40;;;;;;;11.72;58.33;99970.50;1848703;77;21445;-70
2021/04/20 08:06:25;;;;;;;8.70;4.70;;;;;;;11.70;58.14;99969.42;1828594;77;21460;-70
2021/04/20 08:09:09;;;;;;;6.00;5.40;;;;;;;11.82;58.39;99970.97;1851487;77;21839;-71
2021/04/20 08:11:48;;;;;;;7.80;6.50;;;;;;;11.98;58.47;99961.77;1841540;77;21455;-70
2021/04/20 08:14:48;;;;;;;7.90;6.67;;;;;;;12.14;58.92;99963.75;1718604;79;22938;-72
2021/04/20 08:17:48;;;;;;;7.90;6.43;;;;;;;12.06;59.13;99959.81;1717017;82;21348;-69
2021/04/20 08:20:21;;;;;;;8.28;6.70;;;;;;;12.03;59.82;99964.39;1729198;82;21536;-71
2021/04/20 08:25:52;;;;;;;8.03;6.47;;;;;;;11.94;60.49;99964.21;1805357;77;23617;-68
2021/04/20 08:29:01;;;;;;;8.20;6.47;;;;;;;11.84;59.99;99966.94;1774919;79;21280;-69
2021/04/20 08:31:37;;;;;;;7.77;6.33;;;;;;;11.77;60.10;99970.98;1765007;80;21321;-69
2021/04/20 08:34:32;;;;;;;10.03;7.13;;;;;;;11.66;59.73;99972.41;1805219;79;21364;-69
2021/04/20 08:37:10;;;;;;;7.87;7.07;;;;;;;11.53;60.00;99969.56;1779415;80;21369;-69
2021/04/20 08:39:49;;;;;;;7.67;6.70;;;;;;;11.41;61.02;99976.56;1780464;80;21475;-70
2021/04/20 08:42:34;;;;;;;8.70;7.10;;;;;;;11.36;61.69;99976.61;1768029;80;21303;-70
2021/04/20 08:45:31;;;;;;;8.73;7.50;;;;;;;11.38;62.07;99971.77;1850747;77;22867;-69
2021/04/20 08:48:20;;;;;;;8.53;6.90;;;;;;;11.27;62.06;99973.16;1824185;77;21317;-69
2021/04/20 08:50:57;;;;;;;9.40;7.20;;;;;;;11.32;61.79;99971.53;1820739;77;22399;-72
2021/04/20 08:54:09;;;;;;;8.23;6.80;;;;;;;11.24;62.27;99967.03;1808805;77;21430;-69
2021/04/20 08:57:27;;;;;;;7.30;6.50;;;;;;;11.20;62.65;99970.55;1812161;78;22411;-70
2021/04/20 09:00:29;;;;;;;9.47;8.07;;;;;;;11.24;63.29;99970.25;1779057;78;21174;-69
2021/04/20 09:03:20;;;;;;;7.90;7.03;;;;;;;11.45;63.03;99961.05;1809555;77;21256;-70
2021/04/20 09:05:56;;;;;;;8.13;7.28;;;;;;;11.71;63.10;99961.68;1760032;77;21399;-70
2021/04/20 09:08:36;;;;;;;7.90;6.50;;;;;;;11.96;62.35;99955.89;1808483;77;21195;-70
2021/04/20 09:11:24;;;;;;;7.47;6.63;;;;;;;12.13;61.81;99961.62;1802491;77;21992;-69
2021/04/20 09:14:00;;;;;;;6.97;6.10;;;;;;;12.27;61.16;99950.25;1802514;77;21472;-69
2021/04/20 09:16:59;;;;;;;7.63;6.13;;;;;;;12.37;60.11;99953.65;1803549;78;21239;-71
2021/04/20 09:19:35;;;;;;;6.83;5.70;;;;;;;12.36;58.82;99947.22;1814417;77;21449;-69
2021/04/20 09:22:17;;;;;;;7.37;6.37;;;;;;;12.40;58.30;99942.88;1810563;77;21962;-69
2021/04/20 09:24:48;;;;;;;;;;;;;;;12.44;58.71;99939.92;1807656;78;21487;-70
2021/04/20 09:27:54;;;;;;;6.80;5.67;;;;;;;12.57;58.38;99933.88;1805502;78;20254;-69
2021/04/20 09:30:23;;;;;;;6.00;5.37;;;;;;;12.83;56.78;99929.02;1806520;77;21533;-69
2021/04/20 09:33:05;;;;;;;6.40;5.67;;;;;;;12.83;56.78;99929.02;1805884;77;21631;-70
2021/04/20 09:35:35;;;;;;;6.93;5.17;;;;;;;12.86;56.43;99923.06;1795729;77;21463;-70
2021/04/20 09:38:03;;;;;;;6.87;5.40;;;;;;;12.86;56.43;99923.06;1808980;78;21919;-69
2021/04/20 09:40:31;;;;;;;5.67;5.00;;;;;;;12.78;56.62;99917.56;1789471;78;21587;-70
2021/04/20 09:43:19;;;;;;;5.90;4.87;;;;;;;12.61;56.42;99920.16;1815973;77;21522;-69
2021/04/20 09:45:59;;;;;;;5.97;5.00;;;;;;;12.15;56.39;99915.84;1800585;77;21518;-70
2021/04/20 09:48:50;;;;;;;8.07;5.30;;;;;;;12.15;56.39;99915.84;1841759;77;21782;-70
2021/04/20 09:51:22;;;;;;;6.58;5.33;;;;;;;12.06;56.68;99912.17;1841924;76;21595;-70
2021/04/20 09:54:04;;;;;;;6.95;5.50;;;;;;;12.05;56.94;99908.70;1843828;76;21167;-70
2021/04/20 09:56:44;;;;;;;6.27;5.50;;;;;;;12.07;57.08;99899.84;1838787;77;21199;-71
2021/04/20 09:59:21;;;;;;;7.37;5.75;;;;;;;12.16;56.14;99907.52;1845903;77;26824;-70
2021/04/20 10:02:29;;;;;;;6.27;5.37;;;;;;;12.24;56.54;99895.41;1803059;77;21163;-69
2021/04/20 10:05:36;;;;;;;5.40;4.37;;;;;;;12.29;56.83;99894.55;1846616;77;22457;-70
2021/04/20 10:08:38;;;;;;;5.53;4.57;;;;;;;12.41;55.04;99890.94;1822636;77;21377;-70
2021/04/20 10:11:24;;;;;;;5.00;4.33;;;;;;;12.50;53.74;99884.39;1805848;77;21494;-70
2021/04/20 10:14:33;;;;;;;6.63;4.83;;;;;;;12.63;53.55;99881.02;1835951;75;21456;-70
2021/04/20 10:17:14;;;;;;;5.77;4.87;;;;;;;12.77;52.98;99875.78;1846850;77;21436;-70
2021/04/20 10:19:48;;;;;;;4.97;4.20;;;;;;;12.78;52.90;99881.38;1793141;77;21483;-69
2021/04/20 10:22:43;;;;;;;6.20;4.60;;;;;;;12.67;52.20;99874.02;1803517;77;21519;-70
2021/04/20 10:25:48;;;;;;;7.07;4.40;;;;;;;12.50;52.47;99873.13;1835590;75;21498;-68
2021/04/20 10:28:33;;;;;;;5.90;3.93;;;;;;;12.44;51.74;99883.12;1814926;77;22531;-69
2021/04/20 10:31:18;;;;;;;5.20;4.10;;;;;;;12.45;50.81;99871.87;1819756;78;21519;-68
2021/04/20 10:33:50;;;;;;;8.93;6.30;;;;;;;12.36;50.08;99871.69;1820283;77;21505;-69
2021/04/20 10:36:23;;;;;;;7.67;6.50;;;;;;;12.29;51.47;99871.78;1816334;78;21410;-72
2021/04/20 10:38:53;;;;;;;8.33;6.83;;;;;;;12.31;52.97;99882.47;1813280;76;21120;-70
2021/04/20 10:41:25;;;;;;;6.97;4.67;;;;;;;12.29;52.89;99879.27;1822988;78;21803;-70
2021/04/20 10:43:54;;;;;;;9.87;8.73;;;;;;;12.23;52.79;99872.37;1813994;77;21440;-70
2021/04/20 10:46:26;;;;;;;7.13;4.70;;;;;;;12.21;52.98;99874.55;1787180;78;21410;-68
2021/04/20 10:48:55;;;;;;;5.37;3.92;;;;;;;12.27;52.29;99873.39;1808110;78;21522;-69
2021/04/20 10:51:36;;;;;;;7.53;4.90;;;;;;;12.39;51.82;99883.17;1804616;78;21195;-69
2021/04/20 10:54:11;;;;;;;7.07;5.60;;;;;;;12.53;52.26;99871.22;1766070;79;23022;-69
2021/04/20 10:56:52;;;;;;;6.27;4.70;;;;;;;12.53;52.46;99874.45;1764939;80;21141;-69
2021/04/20 10:59:36;;;;;;;7.00;5.35;;;;;;;12.68;52.14;99874.27;1789696;79;27961;-70
2021/04/20 11:02:08;;;;;;;4.63;4.13;;;;;;;12.80;51.90;99874.66;1770206;80;21600;-70
2021/04/20 11:04:37;;;;;;;13.13;9.13;;;;;;;12.90;50.77;99871.84;1775389;79;21559;-69
2021/04/20 11:07:27;;;;;;;7.57;5.80;;;;;;;12.96;50.96;99867.73;1770562;80;21428;-70
2021/04/20 11:10:02;;;;;;;7.47;4.53;;;;;;;12.90;50.39;99870.50;1783728;79;21438;-70
2021/04/20 11:12:31;;;;;;;7.23;5.63;;;;;;;12.82;50.61;99868.99;1787289;78;21423;-70
2021/04/20 11:14:59;;;;;;;7.80;6.87;;;;;;;12.73;50.36;99858.11;1777679;80;21422;-69
2021/04/20 11:17:43;;;;;;;8.23;6.47;;;;;;;12.68;50.88;99867.02;1791962;79;21629;-69
2021/04/20 11:20:20;;;;;;;13.50;9.13;;;;;;;12.73;51.26;99860.79;1800320;79;21464;-70
2021/04/20 11:22:55;;;;;;;8.17;5.40;;;;;;;12.76;51.97;99865.58;1797357;78;21555;-71
2021/04/20 11:25:32;;;;;;;5.83;4.60;;;;;;;12.69;51.91;99865.14;1789908;78;21520;-69
2021/04/20 11:28:02;;;;;;;6.93;5.50;;;;;;;12.64;52.13;99857.18;1779242;79;21472;-70
2021/04/20 11:30:33;;;;;;;9.30;7.40;;;;;;;12.58;52.38;99858.33;1774510;80;21459;-69
2021/04/20 11:33:13;;;;;;;7.75;5.12;;;;;;;12.51;52.74;99855.20;1784642;80;21714;-69
2021/04/20 11:35:45;;;;;;;5.53;4.17;;;;;;;12.44;52.67;99857.68;1771831;80;21191;-70
2021/04/20 11:38:15;;;;;;;6.23;4.53;;;;;;;12.43;52.23;99856.06;1770971;78;21548;-69
2021/04/20 11:41:04;;;;;;;5.93;4.80;;;;;;;12.47;52.90;99844.27;1782775;80;21393;-69
2021/04/20 11:43:32;;;;;;;6.63;4.23;;;;;;;12.48;52.75;99847.19;1777526;79;21446;-69
2021/04/20 11:46:01;;;;;;;5.17;4.40;;;;;;;12.54;51.25;99843.38;1779321;78;21383;-69
2021/04/20 11:48:37;;;;;;;8.57;7.23;;;;;;;12.59;50.79;99840.61;1759195;80;22448;-70
2021/04/20 11:51:06;;;;;;;7.80;5.27;;;;;;;12.63;51.07;99836.81;1750761;80;21904;-71
2021/04/20 11:53:44;;;;;;;7.37;6.20;;;;;;;12.66;51.32;99832.22;1759109;80;21806;-69
2021/04/20 11:56:13;;;;;;;6.13;4.50;;;;;;;12.75;51.29;99823.80;1796110;78;21381;-69
2021/04/20 11:58:44;;;;;;;4.50;3.80;;;;;;;12.85;50.35;99826.33;1790648;78;21458;-71
2021/04/20 12:01:18;;;;;;;5.15;4.15;;;;;;;12.91;49.96;99821.70;1797568;78;21462;-70
2021/04/20 12:03:59;;;;;;;5.00;4.10;;;;;;;12.94;50.04;99819.00;1787605;80;21152;-70
2021/04/20 12:06:51;;;;;;;6.53;4.95;;;;;;;12.97;50.27;99812.50;1750704;81;21415;-70
2021/04/20 12:09:25;;;;;;;5.80;4.67;;;;;;;13.05;50.03;99804.34;1746359;81;21391;-69
2021/04/20 12:11:54;;;;;;;5.30;3.50;;;;;;;13.10;49.33;99806.95;1747013;80;21495;-70